createdAt,value
2022-12-31T00:00:09.636Z,39.20
2022-12-31T00:02:36.709Z,43.90
2022-12-31T00:05:04.630Z,43.42
2022-12-31T00:10:01.672Z,37.42
2022-12-31T00:12:28.767Z,37.28
2022-12-31T00:14:55.649Z,34.60
2022-12-31T00:17:22.581Z,34.28
2022-12-31T00:19:49.468Z,31.45
2022-12-31T00:22:16.406Z,30.77
2022-12-31T00:24:43.239Z,28.65
2022-12-31T00:27:10.176Z,28.02
2022-12-31T00:29:36.961Z,26.55
2022-12-31T00:32:03.944Z,25.70
2022-12-31T00:34:30.836Z,24.10
2022-12-31T00:36:57.715Z,23.52
2022-12-31T00:39:24.803Z,23.42
2022-12-31T00:41:51.717Z,21.90
2022-12-31T00:44:18.568Z,20.58
2022-12-31T00:49:11.531Z,22.08
2022-12-31T00:51:38.764Z,20.35
2022-12-31T00:54:05.835Z,21.38
2022-12-31T00:56:32.947Z,20.80
2022-12-31T00:59:00.482Z,24.17
2022-12-31T01:01:33.383Z,29.70
2022-12-31T01:04:05.046Z,36.28
2022-12-31T01:06:32.693Z,34.13
2022-12-31T01:08:59.709Z,34.92
2022-12-31T01:11:31.722Z,31.75
2022-12-31T01:14:08.575Z,31.75
2022-12-31T01:16:39.641Z,33.47
2022-12-31T01:19:10.279Z,34.17
2022-12-31T01:21:40.135Z,33.15
2022-12-31T01:24:08.420Z,34.80
2022-12-31T01:26:36.039Z,36.13
2022-12-31T01:29:04.085Z,32.50
2022-12-31T01:31:31.162Z,30.45
2022-12-31T01:33:58.534Z,30.35
2022-12-31T01:36:29.603Z,29.52
2022-12-31T01:38:58.152Z,29.95
2022-12-31T01:41:27.869Z,30.10
2022-12-31T01:43:57.584Z,27.30
2022-12-31T01:46:49.014Z,28.20
2022-12-31T01:49:32.048Z,28.27
2022-12-31T01:52:10.173Z,29.35
2022-12-31T01:54:42.206Z,28.60
2022-12-31T01:57:09.920Z,31.33
2022-12-31T01:59:37.762Z,31.02
2022-12-31T02:02:05.923Z,30.88
2022-12-31T02:04:32.925Z,32.03
2022-12-31T02:07:04.352Z,30.13
2022-12-31T02:09:32.461Z,29.63
2022-12-31T02:11:59.468Z,28.10
2022-12-31T02:14:34.035Z,29.13
2022-12-31T02:17:19.324Z,29.02
2022-12-31T02:20:03.235Z,29.23
2022-12-31T02:22:51.697Z,27.90
2022-12-31T02:25:33.058Z,28.33
2022-12-31T02:28:18.590Z,28.15
2022-12-31T02:30:50.535Z,27.67
2022-12-31T02:33:27.286Z,31.15
2022-12-31T02:38:34.125Z,28.70
2022-12-31T02:41:01.440Z,29.88
2022-12-31T02:43:28.645Z,29.88
2022-12-31T02:46:16.965Z,33.00
2022-12-31T02:49:09.175Z,31.60
2022-12-31T02:51:52.817Z,36.05
2022-12-31T02:54:32.220Z,31.35
2022-12-31T02:57:10.208Z,30.63
2022-12-31T03:00:26.923Z,29.15
2022-12-31T03:02:55.933Z,26.02
2022-12-31T03:05:27.068Z,25.42
2022-12-31T03:07:54.456Z,24.95
2022-12-31T03:10:21.817Z,25.73
2022-12-31T03:12:49.011Z,23.27
2022-12-31T03:15:24.127Z,23.70
2022-12-31T03:18:00.000Z,23.98
2022-12-31T03:20:57.186Z,26.10
2022-12-31T03:23:28.149Z,28.20
2022-12-31T03:25:56.566Z,31.48
2022-12-31T03:28:26.927Z,32.42
2022-12-31T03:30:57.008Z,30.92
2022-12-31T03:33:24.623Z,30.30
2022-12-31T03:35:52.495Z,29.38
2022-12-31T03:38:20.096Z,29.40
2022-12-31T03:40:49.766Z,30.45
2022-12-31T03:43:17.095Z,27.88
2022-12-31T03:45:44.117Z,28.08
2022-12-31T03:48:11.225Z,34.42
2022-12-31T03:50:38.089Z,38.00
2022-12-31T03:53:05.171Z,35.25
2022-12-31T03:55:32.035Z,34.65
2022-12-31T03:57:58.840Z,33.17
2022-12-31T04:00:25.835Z,31.25
2022-12-31T04:02:53.344Z,30.55
2022-12-31T04:05:21.084Z,32.72
2022-12-31T04:07:48.041Z,34.50
2022-12-31T04:10:17.731Z,34.95
2022-12-31T04:12:45.829Z,35.25
2022-12-31T04:15:18.451Z,32.90
2022-12-31T04:17:45.910Z,30.58
2022-12-31T04:20:12.845Z,30.63
2022-12-31T04:22:39.837Z,31.17
2022-12-31T04:25:11.615Z,28.77
2022-12-31T04:27:43.933Z,30.38
2022-12-31T04:30:12.203Z,29.77
2022-12-31T04:32:39.143Z,30.80
2022-12-31T04:35:07.713Z,32.42
2022-12-31T04:37:34.528Z,33.13
2022-12-31T04:40:05.972Z,34.00
2022-12-31T04:42:34.691Z,32.67
2022-12-31T04:45:01.563Z,31.48
2022-12-31T04:47:28.534Z,32.17
2022-12-31T04:49:55.679Z,30.17
2022-12-31T04:52:22.609Z,30.10
2022-12-31T04:54:49.422Z,30.73
2022-12-31T04:57:16.437Z,30.63
2022-12-31T04:59:43.262Z,30.55
2022-12-31T05:02:10.506Z,30.00
2022-12-31T05:04:37.669Z,31.00
2022-12-31T05:07:04.572Z,31.52
2022-12-31T05:09:31.443Z,31.00
2022-12-31T05:11:58.320Z,29.45
2022-12-31T05:14:25.760Z,27.27
2022-12-31T05:16:52.789Z,29.05
2022-12-31T05:19:19.820Z,27.85
2022-12-31T05:22:06.582Z,27.63
2022-12-31T05:24:33.513Z,25.63
2022-12-31T05:27:00.307Z,27.85
2022-12-31T05:29:27.122Z,27.52
2022-12-31T05:31:53.975Z,28.40
2022-12-31T05:34:20.764Z,29.10
2022-12-31T05:36:47.559Z,28.35
2022-12-31T05:39:14.497Z,30.75
2022-12-31T05:41:41.268Z,31.05
2022-12-31T05:44:08.171Z,31.95
2022-12-31T05:46:35.021Z,30.10
2022-12-31T05:49:01.826Z,32.08
2022-12-31T05:51:28.620Z,32.78
2022-12-31T05:53:55.463Z,32.50
2022-12-31T05:56:22.320Z,33.25
2022-12-31T05:58:49.178Z,33.10
2022-12-31T06:01:16.089Z,32.80
2022-12-31T06:03:43.046Z,36.78
2022-12-31T06:06:09.868Z,43.35
2022-12-31T06:08:36.865Z,46.88
2022-12-31T06:11:04.003Z,38.50
2022-12-31T06:13:30.840Z,39.58
2022-12-31T06:16:04.581Z,39.13
2022-12-31T06:18:31.409Z,36.50
2022-12-31T06:20:58.975Z,36.22
2022-12-31T06:23:25.852Z,36.72
2022-12-31T06:25:52.765Z,36.80
2022-12-31T06:28:20.624Z,35.38
2022-12-31T06:30:47.953Z,34.72
2022-12-31T06:33:14.822Z,34.35
2022-12-31T06:35:41.623Z,30.98
2022-12-31T06:38:08.506Z,28.95
2022-12-31T06:40:37.741Z,27.85
2022-12-31T06:43:04.542Z,27.10
2022-12-31T06:45:31.405Z,26.55
2022-12-31T06:47:58.207Z,26.90
2022-12-31T06:50:25.121Z,26.10
2022-12-31T06:52:51.959Z,26.40
2022-12-31T06:55:19.165Z,26.52
2022-12-31T06:57:46.350Z,30.30
2022-12-31T07:00:13.820Z,34.53
2022-12-31T07:03:08.167Z,34.17
2022-12-31T07:05:46.067Z,35.05
2022-12-31T07:08:40.292Z,39.88
2022-12-31T07:11:23.373Z,37.80
2022-12-31T07:14:20.407Z,35.00
2022-12-31T07:16:57.963Z,35.50
2022-12-31T07:19:57.870Z,32.85
2022-12-31T07:22:25.844Z,33.05
2022-12-31T07:24:52.921Z,32.97
2022-12-31T07:27:19.649Z,32.25
2022-12-31T07:30:17.185Z,31.38
2022-12-31T07:35:48.802Z,26.30
2022-12-31T07:38:36.065Z,23.88
2022-12-31T07:41:39.073Z,23.83
2022-12-31T07:44:25.054Z,24.60
2022-12-31T07:46:57.311Z,20.90
2022-12-31T07:49:25.582Z,20.60
2022-12-31T07:51:53.107Z,31.05
2022-12-31T07:54:21.014Z,32.95
2022-12-31T07:56:48.585Z,36.65
2022-12-31T07:59:44.327Z,32.00
2022-12-31T08:02:22.167Z,38.67
2022-12-31T08:05:11.300Z,36.67
2022-12-31T08:08:05.796Z,34.78
2022-12-31T08:10:36.523Z,34.67
2022-12-31T08:13:08.637Z,34.83
2022-12-31T08:15:38.097Z,36.70
2022-12-31T08:18:05.525Z,31.88
2022-12-31T08:20:34.367Z,24.35
2022-12-31T08:23:28.775Z,25.38
2022-12-31T08:26:11.922Z,29.95
2022-12-31T08:29:02.273Z,30.48
2022-12-31T08:31:45.305Z,32.13
2022-12-31T08:34:52.398Z,31.42
2022-12-31T08:37:26.662Z,31.00
2022-12-31T08:40:27.049Z,28.88
2022-12-31T08:43:09.044Z,26.55
2022-12-31T08:45:43.414Z,25.63
2022-12-31T08:48:24.773Z,24.55
2022-12-31T08:50:52.067Z,23.10
2022-12-31T08:53:19.156Z,23.90
2022-12-31T08:55:49.583Z,23.88
2022-12-31T08:58:34.444Z,25.70
2022-12-31T09:01:02.392Z,26.67
2022-12-31T09:03:50.480Z,25.88
2022-12-31T09:06:34.051Z,24.20
2022-12-31T09:09:42.810Z,21.55
2022-12-31T09:12:45.369Z,19.85
2022-12-31T09:15:21.199Z,19.58
2022-12-31T09:17:50.585Z,19.67
2022-12-31T09:20:42.818Z,20.67
2022-12-31T09:23:12.544Z,20.92
2022-12-31T09:25:52.060Z,24.45
2022-12-31T09:28:40.664Z,22.80
2022-12-31T09:31:26.660Z,22.02
2022-12-31T09:34:36.809Z,23.65
2022-12-31T09:37:13.859Z,22.88
2022-12-31T09:39:46.345Z,25.30
2022-12-31T09:42:43.008Z,23.92
2022-12-31T09:45:28.491Z,24.43
2022-12-31T09:48:37.622Z,23.98
2022-12-31T09:51:07.864Z,23.63
2022-12-31T09:54:12.044Z,26.08
2022-12-31T09:57:14.450Z,25.05
2022-12-31T09:59:53.423Z,24.38
2022-12-31T10:02:26.789Z,23.65
2022-12-31T10:05:18.567Z,23.63
2022-12-31T10:08:07.717Z,21.33
2022-12-31T10:10:47.109Z,25.48
2022-12-31T10:13:40.925Z,20.20
2022-12-31T10:16:11.011Z,21.77
2022-12-31T10:18:54.860Z,18.65
2022-12-31T10:21:38.107Z,18.95
2022-12-31T10:24:34.056Z,19.35
2022-12-31T10:27:51.792Z,19.15
2022-12-31T10:30:21.528Z,17.87
2022-12-31T10:33:07.353Z,17.48
2022-12-31T10:35:59.188Z,16.23
2022-12-31T10:38:55.899Z,12.93
2022-12-31T10:41:45.879Z,12.97
2022-12-31T10:44:31.363Z,10.75
2022-12-31T10:47:01.269Z,12.13
2022-12-31T10:50:03.841Z,12.40
2022-12-31T10:52:52.297Z,11.57
2022-12-31T10:55:49.782Z,12.00
2022-12-31T10:58:34.815Z,12.50
2022-12-31T11:01:17.101Z,11.30
2022-12-31T11:04:03.365Z,11.55
2022-12-31T11:06:49.663Z,12.43
2022-12-31T11:09:52.119Z,11.43
2022-12-31T11:12:46.695Z,11.40
2022-12-31T11:15:38.575Z,12.45
2022-12-31T11:18:36.407Z,12.82
2022-12-31T11:21:19.690Z,13.57
2022-12-31T11:24:04.121Z,13.73
2022-12-31T11:27:01.973Z,11.93
2022-12-31T11:29:43.345Z,12.50
2022-12-31T11:32:19.347Z,11.07
2022-12-31T11:34:55.627Z,12.02
2022-12-31T11:38:16.217Z,11.70
2022-12-31T11:41:15.356Z,12.75
2022-12-31T11:44:03.965Z,11.95
2022-12-31T11:46:59.889Z,12.20
2022-12-31T11:49:32.848Z,10.50
2022-12-31T11:52:21.663Z,10.30
2022-12-31T11:54:58.796Z,10.07
2022-12-31T11:57:36.677Z,10.15
2022-12-31T12:00:09.741Z,12.85
2022-12-31T12:02:43.000Z,9.57
2022-12-31T12:05:11.714Z,9.90
2022-12-31T12:07:38.992Z,9.82
2022-12-31T12:10:31.930Z,11.40
2022-12-31T12:13:26.844Z,10.52
2022-12-31T12:15:59.550Z,13.73
2022-12-31T12:18:50.818Z,12.35
2022-12-31T12:21:21.806Z,11.45
2022-12-31T12:23:56.100Z,10.57
2022-12-31T12:26:49.401Z,11.77
2022-12-31T12:29:23.656Z,11.52
2022-12-31T12:32:07.121Z,12.50
2022-12-31T12:34:36.658Z,9.75
2022-12-31T12:37:05.370Z,9.57
2022-12-31T12:39:33.767Z,9.18
2022-12-31T12:42:18.578Z,7.30
2022-12-31T12:44:45.499Z,7.75
2022-12-31T12:47:16.321Z,9.43
2022-12-31T12:49:47.373Z,8.75
2022-12-31T12:52:41.042Z,8.73
2022-12-31T12:55:33.462Z,10.00
2022-12-31T12:58:48.574Z,9.57
2022-12-31T13:01:35.044Z,9.77
2022-12-31T13:04:33.867Z,9.55
2022-12-31T13:07:46.532Z,10.48
2022-12-31T13:10:40.233Z,10.77
2022-12-31T13:13:25.947Z,10.98
2022-12-31T13:16:03.282Z,10.18
2022-12-31T13:18:54.537Z,12.88
2022-12-31T13:21:44.518Z,11.55
2022-12-31T13:24:19.422Z,12.88
2022-12-31T13:26:57.529Z,12.45
2022-12-31T13:29:28.931Z,10.75
2022-12-31T13:31:58.022Z,11.05
2022-12-31T13:34:30.738Z,10.63
2022-12-31T13:37:02.820Z,11.35
2022-12-31T13:39:33.580Z,11.18
2022-12-31T13:42:20.932Z,10.48
2022-12-31T13:44:54.230Z,12.30
2022-12-31T13:47:29.959Z,10.38
2022-12-31T13:50:14.253Z,11.20
2022-12-31T13:52:53.109Z,12.43
2022-12-31T13:55:41.964Z,13.25
2022-12-31T13:58:45.965Z,14.63
2022-12-31T14:01:33.894Z,16.48
2022-12-31T14:04:26.394Z,18.63
2022-12-31T14:07:07.564Z,15.83
2022-12-31T14:09:35.859Z,18.08
2022-12-31T14:12:30.008Z,18.75
2022-12-31T14:15:11.700Z,17.02
2022-12-31T14:18:04.335Z,16.75
2022-12-31T14:20:53.624Z,16.95
2022-12-31T14:23:40.498Z,16.77
2022-12-31T14:26:40.388Z,17.00
2022-12-31T14:29:15.064Z,16.58
2022-12-31T14:31:54.291Z,19.35
2022-12-31T14:34:53.178Z,24.98
2022-12-31T14:37:19.920Z,17.75
2022-12-31T14:40:06.601Z,18.02
2022-12-31T14:42:38.414Z,17.17
2022-12-31T14:45:42.462Z,17.92
2022-12-31T14:48:33.503Z,17.63
2022-12-31T14:51:03.184Z,19.15
2022-12-31T14:53:30.629Z,19.02
2022-12-31T14:56:01.985Z,18.88
2022-12-31T14:58:44.267Z,18.98
2022-12-31T15:01:22.781Z,19.38
2022-12-31T15:03:52.537Z,17.65
2022-12-31T15:06:47.306Z,19.95
2022-12-31T15:09:44.307Z,20.13
2022-12-31T15:12:52.688Z,18.63
2022-12-31T15:15:43.167Z,19.30
2022-12-31T15:18:29.366Z,20.70
2022-12-31T15:20:59.128Z,19.05
2022-12-31T15:23:38.282Z,22.13
2022-12-31T15:26:06.451Z,50.08
2022-12-31T15:28:39.713Z,63.92
2022-12-31T15:31:06.655Z,57.85
2022-12-31T15:33:53.058Z,45.55
2022-12-31T15:36:22.590Z,68.45
2022-12-31T15:38:50.677Z,63.67
2022-12-31T15:41:20.554Z,67.57
2022-12-31T15:43:49.844Z,55.17
2022-12-31T15:46:20.936Z,58.10
2022-12-31T15:49:01.987Z,54.47
2022-12-31T15:51:43.147Z,57.42
2022-12-31T15:54:23.091Z,63.17
2022-12-31T15:56:50.600Z,60.53
2022-12-31T15:59:18.596Z,57.88
2022-12-31T16:01:46.943Z,56.85
2022-12-31T16:04:39.480Z,55.85
2022-12-31T16:07:06.377Z,68.85
2022-12-31T16:09:35.998Z,72.18
2022-12-31T16:12:10.342Z,68.60
2022-12-31T16:14:43.847Z,70.25
2022-12-31T16:17:32.714Z,83.78
2022-12-31T16:20:01.804Z,108.75
2022-12-31T16:22:36.848Z,113.43
2022-12-31T16:25:30.285Z,107.15
2022-12-31T16:27:55.929Z,96.95
2022-12-31T16:30:29.616Z,88.18
2022-12-31T16:33:01.843Z,79.90
2022-12-31T16:35:30.883Z,70.85
2022-12-31T16:38:02.508Z,69.32
2022-12-31T16:40:29.892Z,74.40
2022-12-31T16:42:56.711Z,73.68
2022-12-31T16:45:36.641Z,73.10
2022-12-31T16:48:17.149Z,66.00
2022-12-31T16:50:47.249Z,49.78
2022-12-31T16:53:18.396Z,39.83
2022-12-31T16:55:54.042Z,38.30
2022-12-31T16:58:33.812Z,42.33
2022-12-31T17:01:09.639Z,50.40
2022-12-31T17:03:41.651Z,65.97
2022-12-31T17:06:12.791Z,64.88
2022-12-31T17:08:50.296Z,62.40
2022-12-31T17:11:34.818Z,67.57
2022-12-31T17:14:16.111Z,71.35
2022-12-31T17:17:03.330Z,82.40
2022-12-31T17:19:51.383Z,87.97
2022-12-31T17:22:34.226Z,94.13
2022-12-31T17:25:20.167Z,97.55
2022-12-31T17:27:57.981Z,120.30
2022-12-31T17:30:27.777Z,169.88
2022-12-31T17:33:13.256Z,163.38
2022-12-31T17:35:42.595Z,158.88
2022-12-31T17:38:21.060Z,169.32
2022-12-31T17:40:53.682Z,155.32
2022-12-31T17:43:23.057Z,132.20
2022-12-31T17:45:54.764Z,113.78
2022-12-31T17:48:24.816Z,84.88
2022-12-31T17:50:55.538Z,80.40
2022-12-31T17:53:23.078Z,85.50
2022-12-31T17:55:52.934Z,91.18
2022-12-31T17:58:42.625Z,85.82
2022-12-31T18:01:10.237Z,81.72
2022-12-31T18:03:37.474Z,77.93
2022-12-31T18:06:05.574Z,81.28
2022-12-31T18:08:32.465Z,119.03
2022-12-31T18:10:59.431Z,160.15
2022-12-31T18:13:27.740Z,123.38
2022-12-31T18:15:55.292Z,82.55
2022-12-31T18:18:29.604Z,89.53
2022-12-31T18:21:02.266Z,82.47
2022-12-31T18:23:35.195Z,80.78
2022-12-31T18:26:01.980Z,123.05
2022-12-31T18:28:28.797Z,165.07
2022-12-31T18:30:55.862Z,140.77
2022-12-31T18:33:24.044Z,134.93
2022-12-31T18:36:09.272Z,162.05
2022-12-31T18:38:37.052Z,158.90
2022-12-31T18:41:04.452Z,90.88
2022-12-31T18:43:31.935Z,97.05
2022-12-31T18:45:59.274Z,85.47
2022-12-31T18:48:26.260Z,91.57
2022-12-31T18:50:53.097Z,94.25
2022-12-31T18:53:23.109Z,90.25
2022-12-31T18:55:55.680Z,92.07
2022-12-31T18:58:23.438Z,93.47
2022-12-31T19:00:51.147Z,87.82
2022-12-31T19:03:22.132Z,90.28
2022-12-31T19:05:51.139Z,96.68
2022-12-31T19:08:19.695Z,93.03
2022-12-31T19:10:48.445Z,97.15
2022-12-31T19:13:17.567Z,91.35
2022-12-31T19:15:53.389Z,101.85
2022-12-31T19:18:20.257Z,106.70
2022-12-31T19:20:47.465Z,106.47
2022-12-31T19:23:20.589Z,106.30
2022-12-31T19:25:49.217Z,105.50
2022-12-31T19:28:27.050Z,97.60
2022-12-31T19:30:54.623Z,96.40
2022-12-31T19:33:21.901Z,92.20
2022-12-31T19:35:49.103Z,85.93
2022-12-31T19:38:22.829Z,88.10
2022-12-31T19:40:50.909Z,91.80
2022-12-31T19:43:20.432Z,98.20
2022-12-31T19:45:47.936Z,94.95
2022-12-31T19:48:24.683Z,98.97
2022-12-31T19:50:55.597Z,98.03
2022-12-31T19:53:25.844Z,97.03
2022-12-31T19:55:53.565Z,96.47
2022-12-31T19:58:26.568Z,101.18
2022-12-31T20:01:01.733Z,124.78
2022-12-31T20:03:30.142Z,133.30
2022-12-31T20:06:09.223Z,140.20
2022-12-31T20:08:38.340Z,122.20
2022-12-31T20:11:13.385Z,115.55
2022-12-31T20:13:41.224Z,109.28
2022-12-31T20:16:17.657Z,106.10
2022-12-31T20:18:45.945Z,100.15
2022-12-31T20:21:17.991Z,96.93
2022-12-31T20:23:45.184Z,93.85
2022-12-31T20:26:12.217Z,87.80
2022-12-31T20:28:39.431Z,93.82
2022-12-31T20:31:08.334Z,82.25
2022-12-31T20:33:35.650Z,74.47
2022-12-31T20:36:07.605Z,82.47
2022-12-31T20:38:34.723Z,84.07
2022-12-31T20:41:08.817Z,87.80
2022-12-31T20:43:37.133Z,89.22
2022-12-31T20:46:16.264Z,84.70
2022-12-31T20:48:44.540Z,80.75
2022-12-31T20:51:13.130Z,77.60
2022-12-31T20:53:40.764Z,80.50
2022-12-31T20:56:09.741Z,72.57
2022-12-31T20:58:37.143Z,67.97
2022-12-31T21:01:07.047Z,69.22
2022-12-31T21:04:07.010Z,60.63
2022-12-31T21:06:24.766Z,56.35
2022-12-31T21:08:51.695Z,56.88
2022-12-31T21:11:36.948Z,64.15
2022-12-31T21:14:04.093Z,68.78
2022-12-31T21:16:31.092Z,71.60
2022-12-31T21:18:58.407Z,76.65
2022-12-31T21:21:26.589Z,83.40
2022-12-31T21:23:53.620Z,82.43
2022-12-31T21:26:20.759Z,84.47
2022-12-31T21:28:47.648Z,83.82
2022-12-31T21:31:15.341Z,80.90
2022-12-31T21:33:46.784Z,79.05
2022-12-31T21:36:14.688Z,74.63
2022-12-31T21:38:41.730Z,74.15
2022-12-31T21:41:09.450Z,69.90
2022-12-31T21:43:36.324Z,68.85
2022-12-31T21:46:07.732Z,72.13
2022-12-31T21:48:34.991Z,71.28
2022-12-31T21:51:11.002Z,72.50
2022-12-31T21:53:38.048Z,65.07
2022-12-31T21:56:09.044Z,67.32
2022-12-31T21:58:38.449Z,68.85
2022-12-31T22:01:24.426Z,67.63
2022-12-31T22:03:52.067Z,65.37
2022-12-31T22:06:21.877Z,65.28
2022-12-31T22:08:54.761Z,67.78
2022-12-31T22:11:23.974Z,64.70
2022-12-31T22:13:51.842Z,63.55
2022-12-31T22:16:20.632Z,65.97
2022-12-31T22:18:48.683Z,64.45
2022-12-31T22:21:19.432Z,62.92
2022-12-31T22:23:49.344Z,63.00
2022-12-31T22:26:18.403Z,65.63
2022-12-31T22:28:46.546Z,66.15
2022-12-31T22:31:16.325Z,64.40
2022-12-31T22:33:44.189Z,74.32
2022-12-31T22:36:17.414Z,70.53
2022-12-31T22:38:44.608Z,63.95
2022-12-31T22:41:17.860Z,73.00
2022-12-31T22:43:49.151Z,74.15
2022-12-31T22:46:17.393Z,68.85
2022-12-31T22:48:45.005Z,66.82
2022-12-31T22:51:13.533Z,71.68
2022-12-31T22:53:41.739Z,67.18
2022-12-31T22:56:09.193Z,69.25
2022-12-31T22:58:36.884Z,64.13
2022-12-31T23:01:08.695Z,66.97
2022-12-31T23:03:35.856Z,65.28
2022-12-31T23:06:02.877Z,72.05
2022-12-31T23:08:29.694Z,80.30
2022-12-31T23:11:06.094Z,82.60
2022-12-31T23:16:46.435Z,84.03
2022-12-31T23:19:32.994Z,71.25
2022-12-31T23:22:18.652Z,69.95
2022-12-31T23:24:45.466Z,71.93
2022-12-31T23:27:12.360Z,74.18
2022-12-31T23:29:46.186Z,68.45
2022-12-31T23:32:16.993Z,66.22
2022-12-31T23:34:45.619Z,60.72
2022-12-31T23:37:15.895Z,57.35
2022-12-31T23:39:43.009Z,75.40
2022-12-31T23:42:10.372Z,57.47
2022-12-31T23:44:37.313Z,48.40
2022-12-31T23:47:04.251Z,52.08
2022-12-31T23:49:31.158Z,45.78
2022-12-31T23:51:57.992Z,46.97
2022-12-31T23:54:24.795Z,46.90
2022-12-31T23:56:51.626Z,50.67
2022-12-31T23:59:18.623Z,53.83
